sensor_id;sensor_type;location;lat;lon;timestamp;P1;durP1;ratioP1;P2;durP2;ratioP2
74074;SDS011;62428;51.412;5.432;2023-03-14T00:00:17;4.47;;;0.57;;
74074;SDS011;62428;51.412;5.432;2023-03-14T00:02:43;3.53;;;0.40;;
74074;SDS011;62428;51.412;5.432;2023-03-14T00:05:09;5.57;;;0.70;;
74074;SDS011;62428;51.412;5.432;2023-03-14T00:07:35;4.38;;;0.60;;
74074;SDS011;62428;51.412;5.432;2023-03-14T00:10:03;6.28;;;0.70;;
74074;SDS011;62428;51.412;5.432;2023-03-14T00:12:30;3.72;;;0.50;;
74074;SDS011;62428;51.412;5.432;2023-03-14T00:14:56;5.15;;;0.63;;
74074;SDS011;62428;51.412;5.432;2023-03-14T00:17:21;4.23;;;0.50;;
74074;SDS011;62428;51.412;5.432;2023-03-14T00:19:47;2.95;;;0.57;;
74074;SDS011;62428;51.412;5.432;2023-03-14T00:22:17;4.87;;;0.43;;
74074;SDS011;62428;51.412;5.432;2023-03-14T00:24:43;3.42;;;0.60;;
74074;SDS011;62428;51.412;5.432;2023-03-14T00:27:08;9.07;;;0.80;;
74074;SDS011;62428;51.412;5.432;2023-03-14T00:29:33;3.97;;;0.40;;
74074;SDS011;62428;51.412;5.432;2023-03-14T00:31:59;6.57;;;0.77;;
74074;SDS011;62428;51.412;5.432;2023-03-14T00:34:28;3.93;;;0.40;;
74074;SDS011;62428;51.412;5.432;2023-03-14T00:36:54;5.05;;;0.60;;
74074;SDS011;62428;51.412;5.432;2023-03-14T00:39:19;6.30;;;0.70;;
74074;SDS011;62428;51.412;5.432;2023-03-14T00:41:44;4.53;;;0.40;;
74074;SDS011;62428;51.412;5.432;2023-03-14T00:44:10;2.57;;;0.50;;
74074;SDS011;62428;51.412;5.432;2023-03-14T00:46:35;7.43;;;0.30;;
74074;SDS011;62428;51.412;5.432;2023-03-14T00:49:00;4.17;;;0.60;;
74074;SDS011;62428;51.412;5.432;2023-03-14T00:51:26;4.73;;;0.40;;
74074;SDS011;62428;51.412;5.432;2023-03-14T00:53:51;4.67;;;0.30;;
74074;SDS011;62428;51.412;5.432;2023-03-14T00:56:16;4.32;;;0.40;;
74074;SDS011;62428;51.412;5.432;2023-03-14T00:58:42;6.93;;;0.47;;
74074;SDS011;62428;51.412;5.432;2023-03-14T01:01:12;5.00;;;0.63;;
74074;SDS011;62428;51.412;5.432;2023-03-14T01:03:40;5.38;;;0.55;;
74074;SDS011;62428;51.412;5.432;2023-03-14T01:06:06;8.20;;;0.50;;
74074;SDS011;62428;51.412;5.432;2023-03-14T01:08:32;8.70;;;0.50;;
74074;SDS011;62428;51.412;5.432;2023-03-14T01:10:58;6.63;;;0.43;;
74074;SDS011;62428;51.412;5.432;2023-03-14T01:13:23;3.00;;;0.30;;
74074;SDS011;62428;51.412;5.432;2023-03-14T01:15:48;5.00;;;0.50;;
74074;SDS011;62428;51.412;5.432;2023-03-14T01:18:14;2.73;;;0.40;;
74074;SDS011;62428;51.412;5.432;2023-03-14T01:20:39;2.13;;;0.38;;
74074;SDS011;62428;51.412;5.432;2023-03-14T01:23:04;4.93;;;0.30;;
74074;SDS011;62428;51.412;5.432;2023-03-14T01:25:30;3.23;;;0.43;;
74074;SDS011;62428;51.412;5.432;2023-03-14T01:27:55;5.07;;;0.50;;
74074;SDS011;62428;51.412;5.432;2023-03-14T01:30:20;3.57;;;0.40;;
74074;SDS011;62428;51.412;5.432;2023-03-14T01:32:46;4.13;;;0.40;;
74074;SDS011;62428;51.412;5.432;2023-03-14T01:35:11;8.73;;;0.50;;
74074;SDS011;62428;51.412;5.432;2023-03-14T01:37:37;5.33;;;0.40;;
74074;SDS011;62428;51.412;5.432;2023-03-14T01:40:02;6.77;;;0.70;;
74074;SDS011;62428;51.412;5.432;2023-03-14T01:42:30;5.15;;;0.60;;
74074;SDS011;62428;51.412;5.432;2023-03-14T01:44:56;5.10;;;0.40;;
74074;SDS011;62428;51.412;5.432;2023-03-14T01:47:23;7.25;;;0.80;;
74074;SDS011;62428;51.412;5.432;2023-03-14T01:49:54;5.83;;;0.50;;
74074;SDS011;62428;51.412;5.432;2023-03-14T01:52:36;6.10;;;0.30;;
74074;SDS011;62428;51.412;5.432;2023-03-14T01:55:09;6.28;;;0.65;;
74074;SDS011;62428;51.412;5.432;2023-03-14T01:57:48;5.00;;;0.40;;
74074;SDS011;62428;51.412;5.432;2023-03-14T02:00:19;6.07;;;0.90;;
74074;SDS011;62428;51.412;5.432;2023-03-14T02:02:47;5.00;;;0.40;;
74074;SDS011;62428;51.412;5.432;2023-03-14T02:05:16;6.55;;;0.95;;
74074;SDS011;62428;51.412;5.432;2023-03-14T02:07:49;6.20;;;0.55;;
74074;SDS011;62428;51.412;5.432;2023-03-14T02:10:17;3.38;;;0.52;;
74074;SDS011;62428;51.412;5.432;2023-03-14T02:12:47;4.28;;;0.75;;
74074;SDS011;62428;51.412;5.432;2023-03-14T02:15:13;6.03;;;0.40;;
74074;SDS011;62428;51.412;5.432;2023-03-14T02:17:40;8.05;;;0.70;;
74074;SDS011;62428;51.412;5.432;2023-03-14T02:22:58;7.43;;;0.75;;
74074;SDS011;62428;51.412;5.432;2023-03-14T02:25:27;5.18;;;0.70;;
74074;SDS011;62428;51.412;5.432;2023-03-14T02:27:54;3.53;;;0.65;;
74074;SDS011;62428;51.412;5.432;2023-03-14T02:30:20;8.20;;;0.70;;
74074;SDS011;62428;51.412;5.432;2023-03-14T02:32:49;6.40;;;0.85;;
74074;SDS011;62428;51.412;5.432;2023-03-14T02:35:20;7.13;;;0.60;;
74074;SDS011;62428;51.412;5.432;2023-03-14T02:37:52;3.83;;;0.45;;
74074;SDS011;62428;51.412;5.432;2023-03-14T02:40:20;4.75;;;0.47;;
74074;SDS011;62428;51.412;5.432;2023-03-14T02:42:46;8.82;;;0.60;;
74074;SDS011;62428;51.412;5.432;2023-03-14T02:47:39;5.40;;;0.50;;
74074;SDS011;62428;51.412;5.432;2023-03-14T02:50:09;4.93;;;0.50;;
74074;SDS011;62428;51.412;5.432;2023-03-14T02:52:37;6.63;;;0.55;;
74074;SDS011;62428;51.412;5.432;2023-03-14T02:55:03;7.10;;;0.70;;
74074;SDS011;62428;51.412;5.432;2023-03-14T02:57:29;4.70;;;0.63;;
74074;SDS011;62428;51.412;5.432;2023-03-14T02:59:58;7.27;;;0.70;;
74074;SDS011;62428;51.412;5.432;2023-03-14T03:02:24;7.15;;;0.82;;
74074;SDS011;62428;51.412;5.432;2023-03-14T03:04:50;6.00;;;0.50;;
74074;SDS011;62428;51.412;5.432;2023-03-14T03:07:15;4.30;;;0.70;;
74074;SDS011;62428;51.412;5.432;2023-03-14T03:09:40;5.45;;;0.47;;
74074;SDS011;62428;51.412;5.432;2023-03-14T03:12:06;5.03;;;0.70;;
74074;SDS011;62428;51.412;5.432;2023-03-14T03:14:31;6.50;;;0.50;;
74074;SDS011;62428;51.412;5.432;2023-03-14T03:16:57;4.67;;;0.50;;
74074;SDS011;62428;51.412;5.432;2023-03-14T03:19:22;6.83;;;0.70;;
74074;SDS011;62428;51.412;5.432;2023-03-14T03:21:47;7.68;;;1.02;;
74074;SDS011;62428;51.412;5.432;2023-03-14T03:24:13;4.20;;;0.55;;
74074;SDS011;62428;51.412;5.432;2023-03-14T03:26:38;6.80;;;0.73;;
74074;SDS011;62428;51.412;5.432;2023-03-14T03:29:04;6.83;;;0.80;;
74074;SDS011;62428;51.412;5.432;2023-03-14T03:31:29;3.30;;;0.63;;
74074;SDS011;62428;51.412;5.432;2023-03-14T03:33:55;5.97;;;0.87;;
74074;SDS011;62428;51.412;5.432;2023-03-14T03:36:22;6.60;;;0.93;;
74074;SDS011;62428;51.412;5.432;2023-03-14T03:38:49;6.45;;;0.52;;
74074;SDS011;62428;51.412;5.432;2023-03-14T03:41:14;4.85;;;0.52;;
74074;SDS011;62428;51.412;5.432;2023-03-14T03:43:40;6.82;;;0.93;;
74074;SDS011;62428;51.412;5.432;2023-03-14T03:46:06;2.77;;;0.33;;
74074;SDS011;62428;51.412;5.432;2023-03-14T03:48:32;7.00;;;0.95;;
74074;SDS011;62428;51.412;5.432;2023-03-14T03:50:58;4.60;;;0.60;;
74074;SDS011;62428;51.412;5.432;2023-03-14T03:53:23;8.85;;;0.68;;
74074;SDS011;62428;51.412;5.432;2023-03-14T03:55:48;5.28;;;0.60;;
74074;SDS011;62428;51.412;5.432;2023-03-14T03:58:14;7.90;;;0.40;;
74074;SDS011;62428;51.412;5.432;2023-03-14T04:00:39;2.47;;;0.40;;
74074;SDS011;62428;51.412;5.432;2023-03-14T04:03:05;3.20;;;0.67;;
74074;SDS011;62428;51.412;5.432;2023-03-14T04:05:30;9.30;;;0.73;;
74074;SDS011;62428;51.412;5.432;2023-03-14T04:07:55;10.23;;;1.20;;
74074;SDS011;62428;51.412;5.432;2023-03-14T04:10:21;2.58;;;0.30;;
74074;SDS011;62428;51.412;5.432;2023-03-14T04:12:46;4.68;;;0.30;;
74074;SDS011;62428;51.412;5.432;2023-03-14T04:15:11;2.47;;;0.40;;
74074;SDS011;62428;51.412;5.432;2023-03-14T04:17:37;3.33;;;0.40;;
74074;SDS011;62428;51.412;5.432;2023-03-14T04:20:02;3.30;;;0.30;;
74074;SDS011;62428;51.412;5.432;2023-03-14T04:22:28;3.22;;;0.40;;
74074;SDS011;62428;51.412;5.432;2023-03-14T04:24:54;3.43;;;0.30;;
74074;SDS011;62428;51.412;5.432;2023-03-14T04:27:19;1.73;;;0.33;;
74074;SDS011;62428;51.412;5.432;2023-03-14T04:29:44;3.10;;;0.30;;
74074;SDS011;62428;51.412;5.432;2023-03-14T04:32:10;3.50;;;0.30;;
74074;SDS011;62428;51.412;5.432;2023-03-14T04:34:35;2.72;;;0.30;;
74074;SDS011;62428;51.412;5.432;2023-03-14T04:37:00;3.03;;;0.30;;
74074;SDS011;62428;51.412;5.432;2023-03-14T04:39:26;3.10;;;0.37;;
74074;SDS011;62428;51.412;5.432;2023-03-14T04:41:51;4.33;;;0.73;;
74074;SDS011;62428;51.412;5.432;2023-03-14T04:44:17;2.80;;;0.30;;
74074;SDS011;62428;51.412;5.432;2023-03-14T04:46:42;1.15;;;0.30;;
74074;SDS011;62428;51.412;5.432;2023-03-14T04:49:08;5.57;;;0.87;;
74074;SDS011;62428;51.412;5.432;2023-03-14T04:51:33;4.97;;;0.70;;
74074;SDS011;62428;51.412;5.432;2023-03-14T04:53:59;4.68;;;0.80;;
74074;SDS011;62428;51.412;5.432;2023-03-14T04:56:24;4.03;;;0.90;;
74074;SDS011;62428;51.412;5.432;2023-03-14T04:58:49;4.63;;;1.23;;
74074;SDS011;62428;51.412;5.432;2023-03-14T05:01:15;4.27;;;1.03;;
74074;SDS011;62428;51.412;5.432;2023-03-14T05:03:40;3.73;;;0.83;;
74074;SDS011;62428;51.412;5.432;2023-03-14T05:06:05;2.77;;;1.30;;
74074;SDS011;62428;51.412;5.432;2023-03-14T05:08:31;6.63;;;1.37;;
74074;SDS011;62428;51.412;5.432;2023-03-14T05:10:56;3.08;;;1.27;;
74074;SDS011;62428;51.412;5.432;2023-03-14T05:13:23;4.33;;;1.23;;
74074;SDS011;62428;51.412;5.432;2023-03-14T05:15:49;5.85;;;1.20;;
74074;SDS011;62428;51.412;5.432;2023-03-14T05:18:18;4.38;;;1.40;;
74074;SDS011;62428;51.412;5.432;2023-03-14T05:20:43;6.03;;;1.20;;
74074;SDS011;62428;51.412;5.432;2023-03-14T05:23:09;8.23;;;1.60;;
74074;SDS011;62428;51.412;5.432;2023-03-14T05:25:35;10.70;;;1.60;;
74074;SDS011;62428;51.412;5.432;2023-03-14T05:28:00;4.90;;;0.87;;
74074;SDS011;62428;51.412;5.432;2023-03-14T05:30:25;4.60;;;0.77;;
74074;SDS011;62428;51.412;5.432;2023-03-14T05:32:53;6.10;;;1.00;;
74074;SDS011;62428;51.412;5.432;2023-03-14T05:35:19;7.03;;;1.10;;
74074;SDS011;62428;51.412;5.432;2023-03-14T05:37:44;3.47;;;1.00;;
74074;SDS011;62428;51.412;5.432;2023-03-14T05:40:10;4.07;;;0.97;;
74074;SDS011;62428;51.412;5.432;2023-03-14T05:42:36;6.35;;;1.20;;
74074;SDS011;62428;51.412;5.432;2023-03-14T05:45:01;6.40;;;1.03;;
74074;SDS011;62428;51.412;5.432;2023-03-14T05:47:27;6.73;;;1.10;;
74074;SDS011;62428;51.412;5.432;2023-03-14T05:49:52;7.03;;;1.33;;
74074;SDS011;62428;51.412;5.432;2023-03-14T05:52:18;4.77;;;1.00;;
74074;SDS011;62428;51.412;5.432;2023-03-14T05:54:43;2.85;;;0.80;;
74074;SDS011;62428;51.412;5.432;2023-03-14T05:57:09;7.07;;;0.88;;
74074;SDS011;62428;51.412;5.432;2023-03-14T05:59:34;4.00;;;0.93;;
74074;SDS011;62428;51.412;5.432;2023-03-14T06:01:59;5.53;;;1.33;;
74074;SDS011;62428;51.412;5.432;2023-03-14T06:04:25;3.10;;;1.00;;
74074;SDS011;62428;51.412;5.432;2023-03-14T06:06:50;7.07;;;0.97;;
74074;SDS011;62428;51.412;5.432;2023-03-14T06:09:15;3.73;;;1.17;;
74074;SDS011;62428;51.412;5.432;2023-03-14T06:11:41;3.33;;;0.90;;
74074;SDS011;62428;51.412;5.432;2023-03-14T06:14:06;6.10;;;1.15;;
74074;SDS011;62428;51.412;5.432;2023-03-14T06:16:32;4.10;;;0.87;;
74074;SDS011;62428;51.412;5.432;2023-03-14T06:18:57;5.00;;;0.90;;
74074;SDS011;62428;51.412;5.432;2023-03-14T06:21:23;6.68;;;1.33;;
74074;SDS011;62428;51.412;5.432;2023-03-14T06:23:48;3.92;;;0.93;;
74074;SDS011;62428;51.412;5.432;2023-03-14T06:26:14;4.77;;;1.50;;
74074;SDS011;62428;51.412;5.432;2023-03-14T06:28:39;5.43;;;0.90;;
74074;SDS011;62428;51.412;5.432;2023-03-14T06:31:05;3.63;;;0.90;;
74074;SDS011;62428;51.412;5.432;2023-03-14T06:33:30;2.08;;;0.88;;
74074;SDS011;62428;51.412;5.432;2023-03-14T06:35:56;4.30;;;1.10;;
74074;SDS011;62428;51.412;5.432;2023-03-14T06:38:21;5.70;;;0.90;;
74074;SDS011;62428;51.412;5.432;2023-03-14T06:40:46;6.33;;;0.80;;
74074;SDS011;62428;51.412;5.432;2023-03-14T06:43:12;3.08;;;0.95;;
74074;SDS011;62428;51.412;5.432;2023-03-14T06:45:37;3.10;;;0.60;;
74074;SDS011;62428;51.412;5.432;2023-03-14T06:48:03;5.23;;;0.87;;
74074;SDS011;62428;51.412;5.432;2023-03-14T06:50:28;2.73;;;0.90;;
74074;SDS011;62428;51.412;5.432;2023-03-14T06:52:53;5.37;;;1.27;;
74074;SDS011;62428;51.412;5.432;2023-03-14T06:55:19;3.83;;;1.30;;
74074;SDS011;62428;51.412;5.432;2023-03-14T06:57:45;5.82;;;1.10;;
74074;SDS011;62428;51.412;5.432;2023-03-14T07:00:11;4.18;;;1.40;;
74074;SDS011;62428;51.412;5.432;2023-03-14T07:02:37;3.10;;;1.00;;
74074;SDS011;62428;51.412;5.432;2023-03-14T07:05:04;6.57;;;1.25;;
74074;SDS011;62428;51.412;5.432;2023-03-14T07:07:30;5.25;;;1.30;;
74074;SDS011;62428;51.412;5.432;2023-03-14T07:09:55;3.00;;;0.90;;
74074;SDS011;62428;51.412;5.432;2023-03-14T07:12:20;7.23;;;1.10;;
74074;SDS011;62428;51.412;5.432;2023-03-14T07:14:46;4.13;;;1.60;;
74074;SDS011;62428;51.412;5.432;2023-03-14T07:17:11;6.72;;;1.48;;
74074;SDS011;62428;51.412;5.432;2023-03-14T07:19:36;5.97;;;1.13;;
74074;SDS011;62428;51.412;5.432;2023-03-14T07:22:03;9.75;;;1.45;;
74074;SDS011;62428;51.412;5.432;2023-03-14T07:24:29;6.57;;;1.25;;
74074;SDS011;62428;51.412;5.432;2023-03-14T07:26:54;3.90;;;1.37;;
74074;SDS011;62428;51.412;5.432;2023-03-14T07:29:19;6.28;;;1.10;;
74074;SDS011;62428;51.412;5.432;2023-03-14T07:31:45;3.10;;;1.05;;
74074;SDS011;62428;51.412;5.432;2023-03-14T07:34:10;8.03;;;1.83;;
74074;SDS011;62428;51.412;5.432;2023-03-14T07:36:35;4.10;;;1.10;;
74074;SDS011;62428;51.412;5.432;2023-03-14T07:39:01;11.63;;;1.43;;
74074;SDS011;62428;51.412;5.432;2023-03-14T07:41:26;1.73;;;0.70;;
74074;SDS011;62428;51.412;5.432;2023-03-14T07:43:51;1.40;;;0.40;;
74074;SDS011;62428;51.412;5.432;2023-03-14T07:46:17;2.33;;;0.30;;
74074;SDS011;62428;51.412;5.432;2023-03-14T07:48:42;1.65;;;0.30;;
74074;SDS011;62428;51.412;5.432;2023-03-14T07:51:08;0.90;;;0.33;;
74074;SDS011;62428;51.412;5.432;2023-03-14T07:53:33;2.83;;;0.40;;
74074;SDS011;62428;51.412;5.432;2023-03-14T07:55:59;1.60;;;0.40;;
74074;SDS011;62428;51.412;5.432;2023-03-14T07:58:24;3.90;;;0.30;;
74074;SDS011;62428;51.412;5.432;2023-03-14T08:00:50;2.25;;;0.30;;
74074;SDS011;62428;51.412;5.432;2023-03-14T08:03:16;2.63;;;0.40;;
74074;SDS011;62428;51.412;5.432;2023-03-14T08:05:42;4.40;;;0.60;;
74074;SDS011;62428;51.412;5.432;2023-03-14T08:08:07;3.38;;;0.50;;
74074;SDS011;62428;51.412;5.432;2023-03-14T08:10:33;1.33;;;0.73;;
74074;SDS011;62428;51.412;5.432;2023-03-14T08:12:59;1.95;;;0.70;;
74074;SDS011;62428;51.412;5.432;2023-03-14T08:15:26;2.47;;;1.20;;
74074;SDS011;62428;51.412;5.432;2023-03-14T08:17:53;3.75;;;0.98;;
74074;SDS011;62428;51.412;5.432;2023-03-14T08:20:22;1.52;;;1.02;;
74074;SDS011;62428;51.412;5.432;2023-03-14T08:22:52;2.00;;;1.20;;
74074;SDS011;62428;51.412;5.432;2023-03-14T08:25:19;3.83;;;0.93;;
74074;SDS011;62428;51.412;5.432;2023-03-14T08:27:45;4.03;;;0.90;;
74074;SDS011;62428;51.412;5.432;2023-03-14T08:30:11;4.32;;;0.73;;
74074;SDS011;62428;51.412;5.432;2023-03-14T08:32:39;3.90;;;0.50;;
74074;SDS011;62428;51.412;5.432;2023-03-14T08:35:05;3.35;;;0.57;;
74074;SDS011;62428;51.412;5.432;2023-03-14T08:37:31;0.93;;;0.40;;
74074;SDS011;62428;51.412;5.432;2023-03-14T08:39:57;3.63;;;0.70;;
74074;SDS011;62428;51.412;5.432;2023-03-14T08:42:22;2.77;;;0.60;;
74074;SDS011;62428;51.412;5.432;2023-03-14T08:44:51;2.10;;;0.90;;
74074;SDS011;62428;51.412;5.432;2023-03-14T08:47:17;3.53;;;0.95;;
74074;SDS011;62428;51.412;5.432;2023-03-14T08:49:43;2.60;;;0.90;;
74074;SDS011;62428;51.412;5.432;2023-03-14T08:52:08;3.10;;;1.23;;
74074;SDS011;62428;51.412;5.432;2023-03-14T08:54:34;5.40;;;1.00;;
74074;SDS011;62428;51.412;5.432;2023-03-14T08:56:59;3.13;;;0.80;;
74074;SDS011;62428;51.412;5.432;2023-03-14T08:59:24;2.17;;;0.60;;
74074;SDS011;62428;51.412;5.432;2023-03-14T09:01:50;2.30;;;0.50;;
74074;SDS011;62428;51.412;5.432;2023-03-14T09:04:15;4.77;;;0.50;;
74074;SDS011;62428;51.412;5.432;2023-03-14T09:06:41;2.63;;;0.52;;
74074;SDS011;62428;51.412;5.432;2023-03-14T09:09:06;2.77;;;0.73;;
74074;SDS011;62428;51.412;5.432;2023-03-14T09:11:35;8.33;;;0.60;;
74074;SDS011;62428;51.412;5.432;2023-03-14T09:14:00;1.58;;;0.70;;
74074;SDS011;62428;51.412;5.432;2023-03-14T09:16:26;4.20;;;0.50;;
74074;SDS011;62428;51.412;5.432;2023-03-14T09:18:51;2.45;;;0.40;;
74074;SDS011;62428;51.412;5.432;2023-03-14T09:21:22;3.50;;;0.60;;
74074;SDS011;62428;51.412;5.432;2023-03-14T09:23:47;4.38;;;0.60;;
74074;SDS011;62428;51.412;5.432;2023-03-14T09:26:13;5.22;;;0.50;;
74074;SDS011;62428;51.412;5.432;2023-03-14T09:28:39;1.90;;;0.40;;
74074;SDS011;62428;51.412;5.432;2023-03-14T09:31:05;2.10;;;0.40;;
74074;SDS011;62428;51.412;5.432;2023-03-14T09:33:35;2.20;;;0.63;;
74074;SDS011;62428;51.412;5.432;2023-03-14T09:36:01;1.17;;;0.60;;
74074;SDS011;62428;51.412;5.432;2023-03-14T09:38:27;4.18;;;0.77;;
74074;SDS011;62428;51.412;5.432;2023-03-14T09:40:52;3.13;;;0.90;;
74074;SDS011;62428;51.412;5.432;2023-03-14T09:43:19;3.22;;;0.88;;
74074;SDS011;62428;51.412;5.432;2023-03-14T09:45:48;4.05;;;0.80;;
74074;SDS011;62428;51.412;5.432;2023-03-14T09:48:16;1.35;;;0.43;;
74074;SDS011;62428;51.412;5.432;2023-03-14T09:50:46;2.85;;;0.55;;
74074;SDS011;62428;51.412;5.432;2023-03-14T09:53:18;1.65;;;0.20;;
74074;SDS011;62428;51.412;5.432;2023-03-14T09:55:49;1.67;;;0.30;;
74074;SDS011;62428;51.412;5.432;2023-03-14T09:58:22;0.47;;;0.20;;
74074;SDS011;62428;51.412;5.432;2023-03-14T10:00:55;1.98;;;0.17;;
74074;SDS011;62428;51.412;5.432;2023-03-14T10:03:29;0.40;;;0.10;;
74074;SDS011;62428;51.412;5.432;2023-03-14T10:05:59;1.05;;;0.15;;
74074;SDS011;62428;51.412;5.432;2023-03-14T10:08:25;1.30;;;0.10;;
74074;SDS011;62428;51.412;5.432;2023-03-14T10:10:51;0.68;;;0.10;;
74074;SDS011;62428;51.412;5.432;2023-03-14T10:13:22;1.33;;;0.10;;
74074;SDS011;62428;51.412;5.432;2023-03-14T10:15:52;2.15;;;0.20;;
74074;SDS011;62428;51.412;5.432;2023-03-14T10:18:18;2.42;;;0.10;;
74074;SDS011;62428;51.412;5.432;2023-03-14T10:20:45;2.90;;;0.30;;
74074;SDS011;62428;51.412;5.432;2023-03-14T10:25:39;2.13;;;0.20;;
74074;SDS011;62428;51.412;5.432;2023-03-14T10:30:50;2.47;;;0.20;;
74074;SDS011;62428;51.412;5.432;2023-03-14T10:33:22;4.27;;;0.30;;
74074;SDS011;62428;51.412;5.432;2023-03-14T10:35:52;0.50;;;0.20;;
74074;SDS011;62428;51.412;5.432;2023-03-14T10:38:19;2.40;;;0.30;;
74074;SDS011;62428;51.412;5.432;2023-03-14T10:40:51;4.13;;;0.47;;
74074;SDS011;62428;51.412;5.432;2023-03-14T10:43:19;1.65;;;0.22;;
74074;SDS011;62428;51.412;5.432;2023-03-14T10:45:55;7.25;;;0.25;;
74074;SDS011;62428;51.412;5.432;2023-03-14T10:51:02;5.70;;;0.43;;
74074;SDS011;62428;51.412;5.432;2023-03-14T10:53:48;5.15;;;0.30;;
74074;SDS011;62428;51.412;5.432;2023-03-14T10:56:25;2.80;;;0.40;;
74074;SDS011;62428;51.412;5.432;2023-03-14T10:58:56;3.40;;;0.40;;
74074;SDS011;62428;51.412;5.432;2023-03-14T11:04:13;5.55;;;0.60;;
74074;SDS011;62428;51.412;5.432;2023-03-14T11:09:22;9.15;;;0.47;;
74074;SDS011;62428;51.412;5.432;2023-03-14T11:11:54;6.50;;;0.32;;
74074;SDS011;62428;51.412;5.432;2023-03-14T11:14:30;6.80;;;0.60;;
74074;SDS011;62428;51.412;5.432;2023-03-14T11:17:26;3.67;;;0.60;;
74074;SDS011;62428;51.412;5.432;2023-03-14T11:20:57;6.72;;;0.60;;
74074;SDS011;62428;51.412;5.432;2023-03-14T11:23:18;4.00;;;0.25;;
74074;SDS011;62428;51.412;5.432;2023-03-14T11:25:57;11.17;;;0.50;;
74074;SDS011;62428;51.412;5.432;2023-03-14T11:28:36;6.43;;;0.47;;
74074;SDS011;62428;51.412;5.432;2023-03-14T11:34:01;10.20;;;0.60;;
74074;SDS011;62428;51.412;5.432;2023-03-14T11:37:04;9.65;;;0.70;;
74074;SDS011;62428;51.412;5.432;2023-03-14T11:39:37;9.27;;;0.83;;
74074;SDS011;62428;51.412;5.432;2023-03-14T11:42:05;8.50;;;0.45;;
74074;SDS011;62428;51.412;5.432;2023-03-14T11:44:38;8.55;;;0.55;;
74074;SDS011;62428;51.412;5.432;2023-03-14T11:49:40;7.10;;;0.40;;
74074;SDS011;62428;51.412;5.432;2023-03-14T11:52:26;7.90;;;0.70;;
74074;SDS011;62428;51.412;5.432;2023-03-14T11:55:05;5.30;;;0.52;;
74074;SDS011;62428;51.412;5.432;2023-03-14T11:57:37;10.85;;;0.77;;
74074;SDS011;62428;51.412;5.432;2023-03-14T12:00:17;4.95;;;0.50;;
74074;SDS011;62428;51.412;5.432;2023-03-14T12:02:46;5.25;;;0.40;;
74074;SDS011;62428;51.412;5.432;2023-03-14T12:10:54;6.85;;;0.52;;
74074;SDS011;62428;51.412;5.432;2023-03-14T12:13:24;10.65;;;0.45;;
74074;SDS011;62428;51.412;5.432;2023-03-14T12:15:56;11.35;;;0.70;;
74074;SDS011;62428;51.412;5.432;2023-03-14T12:18:33;13.47;;;0.70;;
74074;SDS011;62428;51.412;5.432;2023-03-14T12:21:04;12.65;;;0.70;;
74074;SDS011;62428;51.412;5.432;2023-03-14T12:24:15;15.35;;;0.85;;
74074;SDS011;62428;51.412;5.432;2023-03-14T12:26:26;14.63;;;0.77;;
74074;SDS011;62428;51.412;5.432;2023-03-14T12:34:01;16.25;;;1.73;;
74074;SDS011;62428;51.412;5.432;2023-03-14T12:42:13;16.52;;;1.20;;
74074;SDS011;62428;51.412;5.432;2023-03-14T12:50:07;11.80;;;0.90;;
74074;SDS011;62428;51.412;5.432;2023-03-14T12:55:59;16.42;;;1.35;;
74074;SDS011;62428;51.412;5.432;2023-03-14T12:58:42;20.58;;;1.98;;
74074;SDS011;62428;51.412;5.432;2023-03-14T13:01:17;12.52;;;1.52;;
74074;SDS011;62428;51.412;5.432;2023-03-14T13:03:51;11.00;;;0.97;;
74074;SDS011;62428;51.412;5.432;2023-03-14T13:11:54;13.00;;;0.98;;
74074;SDS011;62428;51.412;5.432;2023-03-14T13:14:22;15.88;;;1.23;;
74074;SDS011;62428;51.412;5.432;2023-03-14T13:16:48;15.57;;;1.43;;
74074;SDS011;62428;51.412;5.432;2023-03-14T13:19:18;11.45;;;0.68;;
74074;SDS011;62428;51.412;5.432;2023-03-14T13:21:48;12.43;;;0.98;;
74074;SDS011;62428;51.412;5.432;2023-03-14T13:24:25;10.13;;;0.90;;
74074;SDS011;62428;51.412;5.432;2023-03-14T13:26:53;10.57;;;1.10;;
74074;SDS011;62428;51.412;5.432;2023-03-14T13:29:27;12.03;;;0.70;;
74074;SDS011;62428;51.412;5.432;2023-03-14T13:32:02;5.35;;;0.70;;
74074;SDS011;62428;51.412;5.432;2023-03-14T13:34:42;13.93;;;0.73;;
74074;SDS011;62428;51.412;5.432;2023-03-14T13:37:20;4.97;;;0.60;;
74074;SDS011;62428;51.412;5.432;2023-03-14T13:39:54;9.77;;;0.68;;
74074;SDS011;62428;51.412;5.432;2023-03-14T13:42:21;9.35;;;0.47;;
74074;SDS011;62428;51.412;5.432;2023-03-14T13:44:51;8.27;;;0.93;;
74074;SDS011;62428;51.412;5.432;2023-03-14T13:47:18;3.72;;;1.00;;
74074;SDS011;62428;51.412;5.432;2023-03-14T13:49:46;5.97;;;0.63;;
74074;SDS011;62428;51.412;5.432;2023-03-14T13:52:29;6.80;;;0.88;;
74074;SDS011;62428;51.412;5.432;2023-03-14T13:54:56;7.50;;;0.60;;
74074;SDS011;62428;51.412;5.432;2023-03-14T13:57:22;5.05;;;0.45;;
74074;SDS011;62428;51.412;5.432;2023-03-14T14:00:02;7.30;;;0.82;;
74074;SDS011;62428;51.412;5.432;2023-03-14T14:02:32;5.32;;;0.95;;
74074;SDS011;62428;51.412;5.432;2023-03-14T14:05:01;5.07;;;0.63;;
74074;SDS011;62428;51.412;5.432;2023-03-14T14:07:27;7.20;;;0.73;;
74074;SDS011;62428;51.412;5.432;2023-03-14T14:09:53;7.85;;;0.80;;
74074;SDS011;62428;51.412;5.432;2023-03-14T14:14:59;6.90;;;0.68;;
74074;SDS011;62428;51.412;5.432;2023-03-14T14:17:32;3.95;;;0.68;;
74074;SDS011;62428;51.412;5.432;2023-03-14T14:20:03;8.93;;;0.63;;
74074;SDS011;62428;51.412;5.432;2023-03-14T14:22:32;6.75;;;0.80;;
74074;SDS011;62428;51.412;5.432;2023-03-14T14:24:58;6.45;;;0.88;;
74074;SDS011;62428;51.412;5.432;2023-03-14T14:27:29;5.32;;;0.70;;
74074;SDS011;62428;51.412;5.432;2023-03-14T14:30:05;4.93;;;0.50;;
74074;SDS011;62428;51.412;5.432;2023-03-14T14:32:42;5.97;;;0.47;;
74074;SDS011;62428;51.412;5.432;2023-03-14T14:35:55;6.68;;;0.73;;
74074;SDS011;62428;51.412;5.432;2023-03-14T14:38:02;7.22;;;0.50;;
74074;SDS011;62428;51.412;5.432;2023-03-14T14:40:40;7.65;;;1.05;;
74074;SDS011;62428;51.412;5.432;2023-03-14T14:43:11;9.90;;;0.77;;
74074;SDS011;62428;51.412;5.432;2023-03-14T14:45:42;7.05;;;0.68;;
74074;SDS011;62428;51.412;5.432;2023-03-14T14:48:09;5.72;;;0.60;;
74074;SDS011;62428;51.412;5.432;2023-03-14T14:50:37;10.50;;;0.90;;
74074;SDS011;62428;51.412;5.432;2023-03-14T14:55:44;7.23;;;0.50;;
74074;SDS011;62428;51.412;5.432;2023-03-14T15:01:14;6.93;;;0.88;;
74074;SDS011;62428;51.412;5.432;2023-03-14T15:03:42;7.43;;;0.47;;
74074;SDS011;62428;51.412;5.432;2023-03-14T15:06:10;8.82;;;0.55;;
74074;SDS011;62428;51.412;5.432;2023-03-14T15:08:37;7.22;;;0.60;;
74074;SDS011;62428;51.412;5.432;2023-03-14T15:11:03;4.50;;;0.57;;
74074;SDS011;62428;51.412;5.432;2023-03-14T15:13:29;7.53;;;0.60;;
74074;SDS011;62428;51.412;5.432;2023-03-14T15:15:55;2.93;;;0.47;;
74074;SDS011;62428;51.412;5.432;2023-03-14T15:18:21;8.70;;;0.70;;
74074;SDS011;62428;51.412;5.432;2023-03-14T15:20:49;6.18;;;0.60;;
74074;SDS011;62428;51.412;5.432;2023-03-14T15:23:15;11.80;;;0.80;;
74074;SDS011;62428;51.412;5.432;2023-03-14T15:25:42;5.93;;;0.30;;
74074;SDS011;62428;51.412;5.432;2023-03-14T15:30:57;6.20;;;0.57;;
74074;SDS011;62428;51.412;5.432;2023-03-14T15:33:24;8.25;;;0.85;;
74074;SDS011;62428;51.412;5.432;2023-03-14T15:35:51;4.00;;;0.60;;
74074;SDS011;62428;51.412;5.432;2023-03-14T15:38:18;7.10;;;0.50;;
74074;SDS011;62428;51.412;5.432;2023-03-14T15:40:46;7.18;;;0.73;;
74074;SDS011;62428;51.412;5.432;2023-03-14T15:43:11;4.82;;;0.22;;
74074;SDS011;62428;51.412;5.432;2023-03-14T15:45:37;8.33;;;0.77;;
74074;SDS011;62428;51.412;5.432;2023-03-14T15:48:03;5.83;;;0.43;;
74074;SDS011;62428;51.412;5.432;2023-03-14T15:50:29;10.77;;;0.63;;
74074;SDS011;62428;51.412;5.432;2023-03-14T15:52:54;7.33;;;0.83;;
74074;SDS011;62428;51.412;5.432;2023-03-14T15:55:21;7.47;;;0.68;;